sensor_id;sensor_type;location;lat;lon;timestamp;P1;durP1;ratioP1;P2;durP2;ratioP2
19127;SDS011;9696;53.686;10.094;2023-08-21T00:00:14;11.50;;;2.10;;
19127;SDS011;9696;53.686;10.094;2023-08-21T00:02:44;3.47;;;1.27;;
19127;SDS011;9696;53.686;10.094;2023-08-21T00:05:14;8.60;;;1.80;;
19127;SDS011;9696;53.686;10.094;2023-08-21T00:07:43;9.70;;;1.98;;
19127;SDS011;9696;53.686;10.094;2023-08-21T00:10:13;7.65;;;2.40;;
19127;SDS011;9696;53.686;10.094;2023-08-21T00:12:42;14.45;;;1.80;;
19127;SDS011;9696;53.686;10.094;2023-08-21T00:15:11;7.00;;;2.05;;
19127;SDS011;9696;53.686;10.094;2023-08-21T00:17:41;9.40;;;2.17;;
19127;SDS011;9696;53.686;10.094;2023-08-21T00:20:10;7.50;;;1.97;;
19127;SDS011;9696;53.686;10.094;2023-08-21T00:22:41;11.50;;;2.50;;
19127;SDS011;9696;53.686;10.094;2023-08-21T00:25:10;6.25;;;2.40;;
19127;SDS011;9696;53.686;10.094;2023-08-21T00:27:39;5.03;;;2.13;;
19127;SDS011;9696;53.686;10.094;2023-08-21T00:30:09;7.22;;;1.80;;
19127;SDS011;9696;53.686;10.094;2023-08-21T00:32:41;13.65;;;2.90;;
19127;SDS011;9696;53.686;10.094;2023-08-21T00:35:11;6.80;;;2.15;;
19127;SDS011;9696;53.686;10.094;2023-08-21T00:37:41;6.93;;;2.47;;
19127;SDS011;9696;53.686;10.094;2023-08-21T00:40:11;7.33;;;2.53;;
19127;SDS011;9696;53.686;10.094;2023-08-21T00:42:40;15.27;;;2.55;;
19127;SDS011;9696;53.686;10.094;2023-08-21T00:45:09;11.25;;;2.60;;
19127;SDS011;9696;53.686;10.094;2023-08-21T00:47:39;11.10;;;2.40;;
19127;SDS011;9696;53.686;10.094;2023-08-21T00:50:09;8.73;;;2.30;;
19127;SDS011;9696;53.686;10.094;2023-08-21T00:52:39;6.88;;;2.70;;
19127;SDS011;9696;53.686;10.094;2023-08-21T00:55:10;11.82;;;2.38;;
19127;SDS011;9696;53.686;10.094;2023-08-21T00:57:40;5.95;;;2.72;;
19127;SDS011;9696;53.686;10.094;2023-08-21T01:00:10;9.68;;;2.90;;
19127;SDS011;9696;53.686;10.094;2023-08-21T01:02:40;9.60;;;2.75;;
19127;SDS011;9696;53.686;10.094;2023-08-21T01:05:12;15.63;;;3.30;;
19127;SDS011;9696;53.686;10.094;2023-08-21T01:07:44;7.60;;;2.72;;
19127;SDS011;9696;53.686;10.094;2023-08-21T01:10:20;22.20;;;3.17;;
19127;SDS011;9696;53.686;10.094;2023-08-21T01:13:01;5.60;;;2.33;;
19127;SDS011;9696;53.686;10.094;2023-08-21T01:15:39;3.38;;;1.92;;
19127;SDS011;9696;53.686;10.094;2023-08-21T01:18:09;9.87;;;2.20;;
19127;SDS011;9696;53.686;10.094;2023-08-21T01:20:39;7.23;;;2.50;;
19127;SDS011;9696;53.686;10.094;2023-08-21T01:26:03;5.10;;;2.00;;
19127;SDS011;9696;53.686;10.094;2023-08-21T01:28:32;10.20;;;2.30;;
19127;SDS011;9696;53.686;10.094;2023-08-21T01:31:05;13.00;;;2.30;;
19127;SDS011;9696;53.686;10.094;2023-08-21T01:33:41;8.33;;;2.57;;
19127;SDS011;9696;53.686;10.094;2023-08-21T01:36:13;5.53;;;2.23;;
19127;SDS011;9696;53.686;10.094;2023-08-21T01:38:44;5.82;;;2.38;;
19127;SDS011;9696;53.686;10.094;2023-08-21T01:41:14;5.30;;;2.60;;
19127;SDS011;9696;53.686;10.094;2023-08-21T01:43:44;13.23;;;2.87;;
19127;SDS011;9696;53.686;10.094;2023-08-21T01:46:13;13.87;;;2.70;;
19127;SDS011;9696;53.686;10.094;2023-08-21T01:48:42;7.73;;;2.50;;
19127;SDS011;9696;53.686;10.094;2023-08-21T01:51:11;15.83;;;2.33;;
19127;SDS011;9696;53.686;10.094;2023-08-21T01:53:40;12.13;;;2.77;;
19127;SDS011;9696;53.686;10.094;2023-08-21T01:56:11;12.93;;;3.13;;
19127;SDS011;9696;53.686;10.094;2023-08-21T01:58:40;13.20;;;2.92;;
19127;SDS011;9696;53.686;10.094;2023-08-21T02:01:09;7.63;;;3.08;;
19127;SDS011;9696;53.686;10.094;2023-08-21T02:03:39;11.67;;;3.10;;
19127;SDS011;9696;53.686;10.094;2023-08-21T02:06:08;8.60;;;2.70;;
19127;SDS011;9696;53.686;10.094;2023-08-21T02:08:39;5.95;;;2.83;;
19127;SDS011;9696;53.686;10.094;2023-08-21T02:11:08;7.20;;;3.10;;
19127;SDS011;9696;53.686;10.094;2023-08-21T02:13:38;6.80;;;3.25;;
19127;SDS011;9696;53.686;10.094;2023-08-21T02:16:07;7.95;;;3.60;;
19127;SDS011;9696;53.686;10.094;2023-08-21T02:18:36;5.70;;;2.60;;
19127;SDS011;9696;53.686;10.094;2023-08-21T02:21:05;10.77;;;2.87;;
19127;SDS011;9696;53.686;10.094;2023-08-21T02:23:34;9.80;;;3.93;;
19127;SDS011;9696;53.686;10.094;2023-08-21T02:26:04;12.60;;;3.50;;
19127;SDS011;9696;53.686;10.094;2023-08-21T02:28:34;11.00;;;3.17;;
19127;SDS011;9696;53.686;10.094;2023-08-21T02:31:03;8.20;;;3.60;;
19127;SDS011;9696;53.686;10.094;2023-08-21T02:33:33;8.43;;;3.10;;
19127;SDS011;9696;53.686;10.094;2023-08-21T02:36:02;11.53;;;3.20;;
19127;SDS011;9696;53.686;10.094;2023-08-21T02:38:34;9.40;;;3.70;;
19127;SDS011;9696;53.686;10.094;2023-08-21T02:41:03;14.52;;;3.28;;
19127;SDS011;9696;53.686;10.094;2023-08-21T02:43:34;9.45;;;3.13;;
19127;SDS011;9696;53.686;10.094;2023-08-21T02:46:03;7.93;;;2.90;;
19127;SDS011;9696;53.686;10.094;2023-08-21T02:48:32;11.70;;;3.60;;
19127;SDS011;9696;53.686;10.094;2023-08-21T02:51:01;14.77;;;3.10;;
19127;SDS011;9696;53.686;10.094;2023-08-21T02:53:31;10.33;;;3.70;;
19127;SDS011;9696;53.686;10.094;2023-08-21T02:56:01;10.40;;;3.13;;
19127;SDS011;9696;53.686;10.094;2023-08-21T02:58:31;12.07;;;3.67;;
19127;SDS011;9696;53.686;10.094;2023-08-21T03:01:01;6.63;;;2.93;;
19127;SDS011;9696;53.686;10.094;2023-08-21T03:03:31;8.48;;;3.33;;
19127;SDS011;9696;53.686;10.094;2023-08-21T03:06:00;21.53;;;3.83;;
19127;SDS011;9696;53.686;10.094;2023-08-21T03:08:31;16.53;;;4.20;;
19127;SDS011;9696;53.686;10.094;2023-08-21T03:11:00;13.70;;;3.87;;
19127;SDS011;9696;53.686;10.094;2023-08-21T03:13:29;9.03;;;4.10;;
19127;SDS011;9696;53.686;10.094;2023-08-21T03:15:58;8.23;;;3.00;;
19127;SDS011;9696;53.686;10.094;2023-08-21T03:18:29;9.47;;;3.10;;
19127;SDS011;9696;53.686;10.094;2023-08-21T03:20:59;10.27;;;3.70;;
19127;SDS011;9696;53.686;10.094;2023-08-21T03:23:29;8.15;;;4.18;;
19127;SDS011;9696;53.686;10.094;2023-08-21T03:25:58;10.03;;;4.10;;
19127;SDS011;9696;53.686;10.094;2023-08-21T03:28:28;10.77;;;3.53;;
19127;SDS011;9696;53.686;10.094;2023-08-21T03:30:57;6.20;;;3.20;;
19127;SDS011;9696;53.686;10.094;2023-08-21T03:33:30;9.33;;;3.43;;
19127;SDS011;9696;53.686;10.094;2023-08-21T03:35:59;8.02;;;3.55;;
19127;SDS011;9696;53.686;10.094;2023-08-21T03:38:28;10.23;;;4.23;;
19127;SDS011;9696;53.686;10.094;2023-08-21T03:40:57;13.83;;;4.57;;
19127;SDS011;9696;53.686;10.094;2023-08-21T03:43:27;10.73;;;3.70;;
19127;SDS011;9696;53.686;10.094;2023-08-21T03:45:56;10.83;;;4.10;;
19127;SDS011;9696;53.686;10.094;2023-08-21T03:48:25;8.20;;;3.13;;
19127;SDS011;9696;53.686;10.094;2023-08-21T03:50:55;9.90;;;3.60;;
19127;SDS011;9696;53.686;10.094;2023-08-21T03:53:24;8.03;;;3.50;;
19127;SDS011;9696;53.686;10.094;2023-08-21T03:55:54;11.63;;;3.78;;
19127;SDS011;9696;53.686;10.094;2023-08-21T03:58:23;12.63;;;4.37;;
19127;SDS011;9696;53.686;10.094;2023-08-21T04:00:53;9.87;;;4.70;;
19127;SDS011;9696;53.686;10.094;2023-08-21T04:03:24;13.97;;;4.03;;
19127;SDS011;9696;53.686;10.094;2023-08-21T04:05:53;10.83;;;4.60;;
19127;SDS011;9696;53.686;10.094;2023-08-21T04:08:24;11.90;;;4.67;;
19127;SDS011;9696;53.686;10.094;2023-08-21T04:10:53;13.90;;;4.93;;
19127;SDS011;9696;53.686;10.094;2023-08-21T04:13:28;14.60;;;5.13;;
19127;SDS011;9696;53.686;10.094;2023-08-21T04:15:57;15.57;;;4.93;;
19127;SDS011;9696;53.686;10.094;2023-08-21T04:18:26;16.00;;;4.90;;
19127;SDS011;9696;53.686;10.094;2023-08-21T04:21:08;14.40;;;4.67;;
19127;SDS011;9696;53.686;10.094;2023-08-21T04:23:37;9.83;;;4.13;;
19127;SDS011;9696;53.686;10.094;2023-08-21T04:26:07;10.73;;;5.00;;
19127;SDS011;9696;53.686;10.094;2023-08-21T04:28:36;8.40;;;3.97;;
19127;SDS011;9696;53.686;10.094;2023-08-21T04:31:05;15.83;;;4.57;;
19127;SDS011;9696;53.686;10.094;2023-08-21T04:33:35;11.40;;;4.57;;
19127;SDS011;9696;53.686;10.094;2023-08-21T04:36:04;11.60;;;5.27;;
19127;SDS011;9696;53.686;10.094;2023-08-21T04:38:35;12.63;;;4.73;;
19127;SDS011;9696;53.686;10.094;2023-08-21T04:41:06;10.30;;;4.57;;
19127;SDS011;9696;53.686;10.094;2023-08-21T04:43:38;9.97;;;4.70;;
19127;SDS011;9696;53.686;10.094;2023-08-21T04:46:08;15.97;;;5.00;;
19127;SDS011;9696;53.686;10.094;2023-08-21T04:48:40;12.73;;;4.87;;
19127;SDS011;9696;53.686;10.094;2023-08-21T04:51:11;13.37;;;4.70;;
19127;SDS011;9696;53.686;10.094;2023-08-21T04:53:43;12.10;;;4.27;;
19127;SDS011;9696;53.686;10.094;2023-08-21T04:56:16;12.60;;;4.73;;
19127;SDS011;9696;53.686;10.094;2023-08-21T04:58:45;21.87;;;4.83;;
19127;SDS011;9696;53.686;10.094;2023-08-21T05:01:16;15.97;;;4.70;;
19127;SDS011;9696;53.686;10.094;2023-08-21T05:03:48;14.50;;;4.80;;
19127;SDS011;9696;53.686;10.094;2023-08-21T05:06:18;23.03;;;6.23;;
19127;SDS011;9696;53.686;10.094;2023-08-21T05:08:48;22.27;;;5.93;;
19127;SDS011;9696;53.686;10.094;2023-08-21T05:11:18;24.33;;;5.40;;
19127;SDS011;9696;53.686;10.094;2023-08-21T05:13:47;15.00;;;5.07;;
19127;SDS011;9696;53.686;10.094;2023-08-21T05:16:18;19.67;;;5.73;;
19127;SDS011;9696;53.686;10.094;2023-08-21T05:18:47;12.90;;;5.00;;
19127;SDS011;9696;53.686;10.094;2023-08-21T05:21:17;11.23;;;4.67;;
19127;SDS011;9696;53.686;10.094;2023-08-21T05:23:47;14.90;;;4.88;;
19127;SDS011;9696;53.686;10.094;2023-08-21T05:26:17;15.35;;;5.57;;
19127;SDS011;9696;53.686;10.094;2023-08-21T05:28:46;20.38;;;6.05;;
19127;SDS011;9696;53.686;10.094;2023-08-21T05:31:15;8.20;;;4.70;;
19127;SDS011;9696;53.686;10.094;2023-08-21T05:33:50;9.67;;;4.47;;
19127;SDS011;9696;53.686;10.094;2023-08-21T05:36:19;14.32;;;4.80;;
19127;SDS011;9696;53.686;10.094;2023-08-21T05:38:49;16.07;;;4.63;;
19127;SDS011;9696;53.686;10.094;2023-08-21T05:41:19;13.65;;;4.72;;
19127;SDS011;9696;53.686;10.094;2023-08-21T05:43:48;19.02;;;5.25;;
19127;SDS011;9696;53.686;10.094;2023-08-21T05:46:17;13.13;;;4.78;;
19127;SDS011;9696;53.686;10.094;2023-08-21T05:48:46;12.88;;;4.93;;
19127;SDS011;9696;53.686;10.094;2023-08-21T05:51:15;11.82;;;5.45;;
19127;SDS011;9696;53.686;10.094;2023-08-21T05:53:45;11.38;;;4.68;;
19127;SDS011;9696;53.686;10.094;2023-08-21T05:56:16;13.77;;;4.65;;
19127;SDS011;9696;53.686;10.094;2023-08-21T05:58:45;13.50;;;4.30;;
19127;SDS011;9696;53.686;10.094;2023-08-21T06:01:14;11.57;;;4.07;;
19127;SDS011;9696;53.686;10.094;2023-08-21T06:03:43;12.32;;;3.30;;
19127;SDS011;9696;53.686;10.094;2023-08-21T06:06:23;8.35;;;2.85;;
19127;SDS011;9696;53.686;10.094;2023-08-21T06:08:52;6.78;;;2.00;;
19127;SDS011;9696;53.686;10.094;2023-08-21T06:11:23;12.43;;;2.33;;
19127;SDS011;9696;53.686;10.094;2023-08-21T06:13:52;9.63;;;2.20;;
19127;SDS011;9696;53.686;10.094;2023-08-21T06:16:21;11.85;;;2.28;;
19127;SDS011;9696;53.686;10.094;2023-08-21T06:18:51;8.25;;;1.38;;
19127;SDS011;9696;53.686;10.094;2023-08-21T06:21:20;8.70;;;1.60;;
19127;SDS011;9696;53.686;10.094;2023-08-21T06:23:49;5.07;;;1.23;;
19127;SDS011;9696;53.686;10.094;2023-08-21T06:26:18;7.70;;;2.10;;
19127;SDS011;9696;53.686;10.094;2023-08-21T06:28:48;8.25;;;1.67;;
19127;SDS011;9696;53.686;10.094;2023-08-21T06:31:19;8.30;;;1.70;;
19127;SDS011;9696;53.686;10.094;2023-08-21T06:33:48;12.38;;;2.05;;
19127;SDS011;9696;53.686;10.094;2023-08-21T06:36:17;8.50;;;1.73;;
19127;SDS011;9696;53.686;10.094;2023-08-21T06:38:47;13.07;;;1.90;;
19127;SDS011;9696;53.686;10.094;2023-08-21T06:41:16;8.35;;;1.55;;
19127;SDS011;9696;53.686;10.094;2023-08-21T06:43:45;11.00;;;1.70;;
19127;SDS011;9696;53.686;10.094;2023-08-21T06:46:18;8.60;;;1.55;;
19127;SDS011;9696;53.686;10.094;2023-08-21T06:48:47;9.95;;;1.38;;
19127;SDS011;9696;53.686;10.094;2023-08-21T06:51:17;5.47;;;1.38;;
19127;SDS011;9696;53.686;10.094;2023-08-21T06:53:46;14.45;;;2.17;;
19127;SDS011;9696;53.686;10.094;2023-08-21T06:56:15;6.55;;;1.52;;
19127;SDS011;9696;53.686;10.094;2023-08-21T06:58:44;10.32;;;1.67;;
19127;SDS011;9696;53.686;10.094;2023-08-21T07:01:13;6.55;;;1.27;;
19127;SDS011;9696;53.686;10.094;2023-08-21T07:03:44;6.63;;;1.23;;
19127;SDS011;9696;53.686;10.094;2023-08-21T07:06:13;9.82;;;1.30;;
19127;SDS011;9696;53.686;10.094;2023-08-21T07:08:42;10.43;;;1.67;;
19127;SDS011;9696;53.686;10.094;2023-08-21T07:11:11;14.98;;;1.10;;
19127;SDS011;9696;53.686;10.094;2023-08-21T07:13:43;6.88;;;1.15;;
19127;SDS011;9696;53.686;10.094;2023-08-21T07:16:12;7.53;;;1.27;;
19127;SDS011;9696;53.686;10.094;2023-08-21T07:18:41;8.23;;;1.33;;
19127;SDS011;9696;53.686;10.094;2023-08-21T07:21:12;3.83;;;0.80;;
19127;SDS011;9696;53.686;10.094;2023-08-21T07:23:58;6.50;;;1.00;;
19127;SDS011;9696;53.686;10.094;2023-08-21T07:26:27;8.20;;;1.33;;
19127;SDS011;9696;53.686;10.094;2023-08-21T07:28:56;4.90;;;0.73;;
19127;SDS011;9696;53.686;10.094;2023-08-21T07:31:25;5.93;;;1.20;;
19127;SDS011;9696;53.686;10.094;2023-08-21T07:33:56;7.07;;;1.30;;
19127;SDS011;9696;53.686;10.094;2023-08-21T07:36:25;4.80;;;0.63;;
19127;SDS011;9696;53.686;10.094;2023-08-21T07:38:54;4.32;;;0.80;;
19127;SDS011;9696;53.686;10.094;2023-08-21T07:41:23;5.15;;;1.10;;
19127;SDS011;9696;53.686;10.094;2023-08-21T07:43:53;10.10;;;0.90;;
19127;SDS011;9696;53.686;10.094;2023-08-21T07:46:22;10.02;;;1.15;;
19127;SDS011;9696;53.686;10.094;2023-08-21T07:48:52;3.55;;;0.55;;
19127;SDS011;9696;53.686;10.094;2023-08-21T07:51:23;4.97;;;0.73;;
19127;SDS011;9696;53.686;10.094;2023-08-21T07:53:52;7.03;;;1.27;;
19127;SDS011;9696;53.686;10.094;2023-08-21T07:56:21;6.30;;;0.95;;
19127;SDS011;9696;53.686;10.094;2023-08-21T07:58:50;8.93;;;1.10;;
19127;SDS011;9696;53.686;10.094;2023-08-21T08:01:19;3.80;;;0.93;;
19127;SDS011;9696;53.686;10.094;2023-08-21T08:03:49;5.65;;;0.82;;
19127;SDS011;9696;53.686;10.094;2023-08-21T08:06:18;5.50;;;0.90;;
19127;SDS011;9696;53.686;10.094;2023-08-21T08:08:48;6.05;;;1.00;;
19127;SDS011;9696;53.686;10.094;2023-08-21T08:11:18;5.32;;;1.02;;
19127;SDS011;9696;53.686;10.094;2023-08-21T08:13:47;4.45;;;0.93;;
19127;SDS011;9696;53.686;10.094;2023-08-21T08:16:16;3.53;;;0.90;;
19127;SDS011;9696;53.686;10.094;2023-08-21T08:18:45;10.38;;;1.00;;
19127;SDS011;9696;53.686;10.094;2023-08-21T08:21:15;6.85;;;0.90;;
19127;SDS011;9696;53.686;10.094;2023-08-21T08:23:44;3.25;;;0.60;;
19127;SDS011;9696;53.686;10.094;2023-08-21T08:26:15;5.03;;;0.90;;
19127;SDS011;9696;53.686;10.094;2023-08-21T08:28:45;3.92;;;0.63;;
19127;SDS011;9696;53.686;10.094;2023-08-21T08:31:14;4.20;;;0.70;;
19127;SDS011;9696;53.686;10.094;2023-08-21T08:33:44;4.93;;;0.73;;
19127;SDS011;9696;53.686;10.094;2023-08-21T08:36:13;3.72;;;0.80;;
19127;SDS011;9696;53.686;10.094;2023-08-21T08:38:42;4.22;;;0.70;;
19127;SDS011;9696;53.686;10.094;2023-08-21T08:41:12;2.20;;;0.70;;
19127;SDS011;9696;53.686;10.094;2023-08-21T08:43:51;3.95;;;0.90;;
19127;SDS011;9696;53.686;10.094;2023-08-21T08:46:24;4.43;;;0.77;;
19127;SDS011;9696;53.686;10.094;2023-08-21T08:48:56;4.22;;;0.75;;
19127;SDS011;9696;53.686;10.094;2023-08-21T08:51:27;3.10;;;0.65;;
19127;SDS011;9696;53.686;10.094;2023-08-21T08:53:58;4.47;;;0.57;;
19127;SDS011;9696;53.686;10.094;2023-08-21T08:56:29;6.47;;;1.05;;
19127;SDS011;9696;53.686;10.094;2023-08-21T08:58:58;2.33;;;0.70;;
19127;SDS011;9696;53.686;10.094;2023-08-21T09:01:27;2.67;;;0.75;;
19127;SDS011;9696;53.686;10.094;2023-08-21T09:03:56;4.00;;;0.80;;
19127;SDS011;9696;53.686;10.094;2023-08-21T09:06:26;4.20;;;0.77;;
19127;SDS011;9696;53.686;10.094;2023-08-21T09:08:55;4.25;;;0.85;;
19127;SDS011;9696;53.686;10.094;2023-08-21T09:11:25;2.17;;;0.57;;
19127;SDS011;9696;53.686;10.094;2023-08-21T09:13:56;2.33;;;0.40;;
19127;SDS011;9696;53.686;10.094;2023-08-21T09:16:26;2.42;;;0.55;;
19127;SDS011;9696;53.686;10.094;2023-08-21T09:18:56;1.88;;;0.50;;
19127;SDS011;9696;53.686;10.094;2023-08-21T09:21:25;5.25;;;0.60;;
19127;SDS011;9696;53.686;10.094;2023-08-21T09:23:56;3.03;;;0.70;;
19127;SDS011;9696;53.686;10.094;2023-08-21T09:26:26;5.45;;;0.80;;
19127;SDS011;9696;53.686;10.094;2023-08-21T09:28:59;4.15;;;0.55;;
19127;SDS011;9696;53.686;10.094;2023-08-21T09:31:32;3.67;;;0.75;;
19127;SDS011;9696;53.686;10.094;2023-08-21T09:34:06;2.63;;;0.65;;
19127;SDS011;9696;53.686;10.094;2023-08-21T09:36:36;2.85;;;0.52;;
19127;SDS011;9696;53.686;10.094;2023-08-21T09:39:07;4.20;;;0.65;;
19127;SDS011;9696;53.686;10.094;2023-08-21T09:41:46;4.35;;;0.98;;
19127;SDS011;9696;53.686;10.094;2023-08-21T09:44:25;2.70;;;0.43;;
19127;SDS011;9696;53.686;10.094;2023-08-21T09:46:54;2.90;;;0.90;;
19127;SDS011;9696;53.686;10.094;2023-08-21T09:49:24;4.07;;;0.65;;
19127;SDS011;9696;53.686;10.094;2023-08-21T09:51:53;2.97;;;0.73;;
19127;SDS011;9696;53.686;10.094;2023-08-21T09:54:23;3.92;;;0.80;;
19127;SDS011;9696;53.686;10.094;2023-08-21T09:56:53;3.67;;;0.77;;
19127;SDS011;9696;53.686;10.094;2023-08-21T09:59:23;2.15;;;0.47;;
19127;SDS011;9696;53.686;10.094;2023-08-21T10:01:54;3.00;;;0.57;;
19127;SDS011;9696;53.686;10.094;2023-08-21T10:04:24;2.90;;;0.50;;
19127;SDS011;9696;53.686;10.094;2023-08-21T10:06:55;3.55;;;0.50;;
19127;SDS011;9696;53.686;10.094;2023-08-21T10:09:26;2.22;;;0.50;;
19127;SDS011;9696;53.686;10.094;2023-08-21T10:11:57;3.83;;;0.75;;
19127;SDS011;9696;53.686;10.094;2023-08-21T10:14:28;3.55;;;0.80;;
19127;SDS011;9696;53.686;10.094;2023-08-21T10:16:57;2.10;;;0.50;;
19127;SDS011;9696;53.686;10.094;2023-08-21T10:19:30;4.97;;;1.23;;
19127;SDS011;9696;53.686;10.094;2023-08-21T10:21:59;3.08;;;0.73;;
19127;SDS011;9696;53.686;10.094;2023-08-21T10:24:33;3.22;;;0.63;;
19127;SDS011;9696;53.686;10.094;2023-08-21T10:27:03;4.97;;;0.68;;
19127;SDS011;9696;53.686;10.094;2023-08-21T10:29:36;4.00;;;0.77;;
19127;SDS011;9696;53.686;10.094;2023-08-21T10:32:07;2.58;;;0.80;;
19127;SDS011;9696;53.686;10.094;2023-08-21T10:34:37;4.95;;;0.70;;
19127;SDS011;9696;53.686;10.094;2023-08-21T10:37:07;2.83;;;0.52;;
19127;SDS011;9696;53.686;10.094;2023-08-21T10:39:53;6.07;;;1.10;;
19127;SDS011;9696;53.686;10.094;2023-08-21T10:42:36;1.92;;;0.65;;
19127;SDS011;9696;53.686;10.094;2023-08-21T10:45:12;5.57;;;1.10;;
19127;SDS011;9696;53.686;10.094;2023-08-21T10:47:41;2.08;;;0.60;;
19127;SDS011;9696;53.686;10.094;2023-08-21T10:50:13;3.00;;;0.60;;
19127;SDS011;9696;53.686;10.094;2023-08-21T10:52:43;3.72;;;0.55;;
19127;SDS011;9696;53.686;10.094;2023-08-21T10:55:15;6.13;;;0.63;;
19127;SDS011;9696;53.686;10.094;2023-08-21T10:57:46;5.85;;;0.60;;
19127;SDS011;9696;53.686;10.094;2023-08-21T11:00:18;8.43;;;0.80;;
19127;SDS011;9696;53.686;10.094;2023-08-21T11:02:48;3.92;;;0.75;;
19127;SDS011;9696;53.686;10.094;2023-08-21T11:05:18;2.83;;;0.40;;
19127;SDS011;9696;53.686;10.094;2023-08-21T11:07:48;2.42;;;0.40;;
19127;SDS011;9696;53.686;10.094;2023-08-21T11:10:18;2.90;;;0.77;;
19127;SDS011;9696;53.686;10.094;2023-08-21T11:12:50;2.38;;;0.52;;
19127;SDS011;9696;53.686;10.094;2023-08-21T11:15:21;3.08;;;0.50;;
19127;SDS011;9696;53.686;10.094;2023-08-21T11:17:52;2.85;;;0.47;;
19127;SDS011;9696;53.686;10.094;2023-08-21T11:20:22;1.38;;;0.40;;
19127;SDS011;9696;53.686;10.094;2023-08-21T11:22:58;8.23;;;0.40;;
19127;SDS011;9696;53.686;10.094;2023-08-21T11:25:29;5.70;;;0.52;;
19127;SDS011;9696;53.686;10.094;2023-08-21T11:27:58;3.28;;;0.75;;
19127;SDS011;9696;53.686;10.094;2023-08-21T11:30:31;3.58;;;0.68;;
19127;SDS011;9696;53.686;10.094;2023-08-21T11:33:05;4.03;;;0.70;;
19127;SDS011;9696;53.686;10.094;2023-08-21T11:35:35;2.25;;;0.47;;
19127;SDS011;9696;53.686;10.094;2023-08-21T11:38:05;1.30;;;0.40;;
19127;SDS011;9696;53.686;10.094;2023-08-21T11:40:41;3.33;;;0.43;;
19127;SDS011;9696;53.686;10.094;2023-08-21T11:43:10;3.20;;;0.52;;
19127;SDS011;9696;53.686;10.094;2023-08-21T11:45:41;3.75;;;0.40;;
19127;SDS011;9696;53.686;10.094;2023-08-21T11:48:24;2.38;;;0.45;;
19127;SDS011;9696;53.686;10.094;2023-08-21T11:50:53;1.75;;;0.60;;
19127;SDS011;9696;53.686;10.094;2023-08-21T11:53:32;1.58;;;0.30;;
19127;SDS011;9696;53.686;10.094;2023-08-21T11:56:03;1.15;;;0.40;;
19127;SDS011;9696;53.686;10.094;2023-08-21T11:58:37;1.58;;;0.43;;
19127;SDS011;9696;53.686;10.094;2023-08-21T12:01:08;1.92;;;0.50;;
19127;SDS011;9696;53.686;10.094;2023-08-21T12:03:37;3.35;;;0.63;;
19127;SDS011;9696;53.686;10.094;2023-08-21T12:06:08;2.30;;;0.57;;
19127;SDS011;9696;53.686;10.094;2023-08-21T12:08:38;2.05;;;0.35;;
19127;SDS011;9696;53.686;10.094;2023-08-21T12:11:07;3.83;;;0.55;;
19127;SDS011;9696;53.686;10.094;2023-08-21T12:13:36;2.22;;;0.60;;
19127;SDS011;9696;53.686;10.094;2023-08-21T12:16:05;3.22;;;0.60;;
19127;SDS011;9696;53.686;10.094;2023-08-21T12:18:36;10.80;;;0.52;;
19127;SDS011;9696;53.686;10.094;2023-08-21T12:21:05;6.72;;;0.60;;
19127;SDS011;9696;53.686;10.094;2023-08-21T12:23:34;2.08;;;0.47;;
19127;SDS011;9696;53.686;10.094;2023-08-21T12:26:04;3.33;;;0.55;;
19127;SDS011;9696;53.686;10.094;2023-08-21T12:28:33;1.90;;;0.45;;
19127;SDS011;9696;53.686;10.094;2023-08-21T12:31:02;1.40;;;0.45;;
19127;SDS011;9696;53.686;10.094;2023-08-21T12:33:31;1.75;;;0.30;;
19127;SDS011;9696;53.686;10.094;2023-08-21T12:36:01;4.78;;;0.60;;
19127;SDS011;9696;53.686;10.094;2023-08-21T12:38:31;3.17;;;0.65;;
19127;SDS011;9696;53.686;10.094;2023-08-21T12:41:01;6.95;;;0.60;;
19127;SDS011;9696;53.686;10.094;2023-08-21T12:43:30;3.65;;;0.60;;
19127;SDS011;9696;53.686;10.094;2023-08-21T12:46:00;2.35;;;0.60;;
19127;SDS011;9696;53.686;10.094;2023-08-21T12:48:29;1.42;;;0.40;;
19127;SDS011;9696;53.686;10.094;2023-08-21T12:50:58;1.58;;;0.47;;
19127;SDS011;9696;53.686;10.094;2023-08-21T12:53:28;2.47;;;0.47;;
19127;SDS011;9696;53.686;10.094;2023-08-21T12:55:58;2.33;;;0.50;;
19127;SDS011;9696;53.686;10.094;2023-08-21T12:58:28;3.17;;;0.65;;
19127;SDS011;9696;53.686;10.094;2023-08-21T13:00:58;2.22;;;0.60;;
19127;SDS011;9696;53.686;10.094;2023-08-21T13:03:27;5.35;;;0.68;;
19127;SDS011;9696;53.686;10.094;2023-08-21T13:05:57;2.45;;;0.82;;
19127;SDS011;9696;53.686;10.094;2023-08-21T13:08:26;2.03;;;0.60;;
19127;SDS011;9696;53.686;10.094;2023-08-21T13:10:56;2.88;;;0.73;;
19127;SDS011;9696;53.686;10.094;2023-08-21T13:13:26;2.33;;;0.68;;
19127;SDS011;9696;53.686;10.094;2023-08-21T13:15:55;4.88;;;0.60;;
19127;SDS011;9696;53.686;10.094;2023-08-21T13:18:24;3.25;;;0.55;;
19127;SDS011;9696;53.686;10.094;2023-08-21T13:20:53;3.95;;;0.50;;
19127;SDS011;9696;53.686;10.094;2023-08-21T13:23:22;2.28;;;0.63;;
19127;SDS011;9696;53.686;10.094;2023-08-21T13:25:52;1.83;;;0.60;;
19127;SDS011;9696;53.686;10.094;2023-08-21T13:28:21;4.15;;;0.55;;
19127;SDS011;9696;53.686;10.094;2023-08-21T13:30:51;5.25;;;0.55;;
19127;SDS011;9696;53.686;10.094;2023-08-21T13:33:20;3.63;;;0.60;;
19127;SDS011;9696;53.686;10.094;2023-08-21T13:35:49;6.55;;;0.80;;
19127;SDS011;9696;53.686;10.094;2023-08-21T13:38:18;2.22;;;0.77;;
19127;SDS011;9696;53.686;10.094;2023-08-21T13:40:47;2.40;;;0.55;;
19127;SDS011;9696;53.686;10.094;2023-08-21T13:43:18;1.52;;;0.68;;
19127;SDS011;9696;53.686;10.094;2023-08-21T13:45:48;2.83;;;0.88;;
19127;SDS011;9696;53.686;10.094;2023-08-21T13:48:17;1.77;;;0.50;;
19127;SDS011;9696;53.686;10.094;2023-08-21T13:50:46;2.30;;;0.57;;
19127;SDS011;9696;53.686;10.094;2023-08-21T13:53:16;2.45;;;0.80;;
19127;SDS011;9696;53.686;10.094;2023-08-21T13:55:45;2.10;;;0.60;;
19127;SDS011;9696;53.686;10.094;2023-08-21T13:58:14;6.80;;;0.98;;
19127;SDS011;9696;53.686;10.094;2023-08-21T14:00:44;2.28;;;0.65;;
19127;SDS011;9696;53.686;10.094;2023-08-21T14:03:13;3.63;;;0.90;;
19127;SDS011;9696;53.686;10.094;2023-08-21T14:05:43;2.60;;;0.82;;
19127;SDS011;9696;53.686;10.094;2023-08-21T14:08:12;4.63;;;0.70;;
19127;SDS011;9696;53.686;10.094;2023-08-21T14:10:41;3.70;;;0.80;;
19127;SDS011;9696;53.686;10.094;2023-08-21T14:13:10;3.63;;;0.55;;
19127;SDS011;9696;53.686;10.094;2023-08-21T14:15:40;2.88;;;0.98;;
19127;SDS011;9696;53.686;10.094;2023-08-21T14:18:10;3.67;;;0.77;;
19127;SDS011;9696;53.686;10.094;2023-08-21T14:20:39;5.43;;;0.90;;
19127;SDS011;9696;53.686;10.094;2023-08-21T14:23:08;2.92;;;0.80;;
19127;SDS011;9696;53.686;10.094;2023-08-21T14:25:38;2.72;;;0.57;;
19127;SDS011;9696;53.686;10.094;2023-08-21T14:28:07;2.15;;;0.60;;
19127;SDS011;9696;53.686;10.094;2023-08-21T14:30:36;2.10;;;0.60;;
19127;SDS011;9696;53.686;10.094;2023-08-21T14:33:05;3.60;;;0.75;;
19127;SDS011;9696;53.686;10.094;2023-08-21T14:35:36;2.13;;;1.05;;
19127;SDS011;9696;53.686;10.094;2023-08-21T14:38:05;2.17;;;0.70;;
19127;SDS011;9696;53.686;10.094;2023-08-21T14:40:34;3.10;;;0.88;;
19127;SDS011;9696;53.686;10.094;2023-08-21T14:43:03;4.57;;;0.82;;
19127;SDS011;9696;53.686;10.094;2023-08-21T14:45:32;2.45;;;0.70;;
19127;SDS011;9696;53.686;10.094;2023-08-21T14:48:01;4.45;;;0.60;;
19127;SDS011;9696;53.686;10.094;2023-08-21T14:50:31;3.85;;;0.82;;
19127;SDS011;9696;53.686;10.094;2023-08-21T14:53:01;3.20;;;0.70;;
19127;SDS011;9696;53.686;10.094;2023-08-21T14:55:31;2.35;;;0.77;;
19127;SDS011;9696;53.686;10.094;2023-08-21T14:58:00;8.43;;;0.90;;
19127;SDS011;9696;53.686;10.094;2023-08-21T15:00:33;2.10;;;0.52;;
19127;SDS011;9696;53.686;10.094;2023-08-21T15:03:02;3.20;;;0.60;;